Terminal Aerodrome Forecast
Issued by NWS Newport/Morehead City, NC

Home | Current Version | Previous Version | Text Only | Print | Product List | Glossary On
Versions: 1 2 3 4 5 6 7 8 9 10 11 12 13 14 15 16 17 18 19 20 21 22 23
000
FTUS42 KMHX 232338
TAFEWN
TAF
KEWN 232338Z 2400/2424 29010KT P6SM VCSH SCT025 BKN050
      TEMPO 2400/2402 6SM SHRA BKN025
     FM240600 30010KT P6SM SCT007 BKN015
     FM241400 31012G19KT P6SM SCT040=

USA.gov is the U.S. government's official web portal to all federal, state and local government web resources and services.